sensor_id;sensor_type;location;lat;lon;timestamp;P1;durP1;ratioP1;P2;durP2;ratioP2
23155;SDS011;11746;50.876;4.246;2023-03-23T00:02:02;5.28;;;3.55;;
23155;SDS011;11746;50.876;4.246;2023-03-23T00:04:28;6.40;;;3.50;;
23155;SDS011;11746;50.876;4.246;2023-03-23T00:06:59;4.07;;;3.38;;
23155;SDS011;11746;50.876;4.246;2023-03-23T00:09:27;5.85;;;3.97;;
23155;SDS011;11746;50.876;4.246;2023-03-23T00:11:55;5.10;;;3.60;;
23155;SDS011;11746;50.876;4.246;2023-03-23T00:14:30;5.00;;;3.50;;
23155;SDS011;11746;50.876;4.246;2023-03-23T00:17:06;7.55;;;3.53;;
23155;SDS011;11746;50.876;4.246;2023-03-23T00:19:34;5.75;;;3.70;;
23155;SDS011;11746;50.876;4.246;2023-03-23T00:22:10;5.05;;;3.60;;
23155;SDS011;11746;50.876;4.246;2023-03-23T00:24:37;4.03;;;3.03;;
23155;SDS011;11746;50.876;4.246;2023-03-23T00:27:02;5.55;;;3.28;;
23155;SDS011;11746;50.876;4.246;2023-03-23T00:29:30;6.72;;;3.42;;
23155;SDS011;11746;50.876;4.246;2023-03-23T00:31:57;4.47;;;3.03;;
23155;SDS011;11746;50.876;4.246;2023-03-23T00:34:23;4.25;;;3.15;;
23155;SDS011;11746;50.876;4.246;2023-03-23T00:36:50;6.47;;;3.15;;
23155;SDS011;11746;50.876;4.246;2023-03-23T00:39:21;5.60;;;3.17;;
23155;SDS011;11746;50.876;4.246;2023-03-23T00:41:49;4.88;;;3.30;;
23155;SDS011;11746;50.876;4.246;2023-03-23T00:44:15;4.15;;;3.00;;
23155;SDS011;11746;50.876;4.246;2023-03-23T00:46:44;4.68;;;3.22;;
23155;SDS011;11746;50.876;4.246;2023-03-23T00:49:13;8.35;;;3.45;;
23155;SDS011;11746;50.876;4.246;2023-03-23T00:51:41;5.00;;;2.83;;
23155;SDS011;11746;50.876;4.246;2023-03-23T00:54:07;4.28;;;2.80;;
23155;SDS011;11746;50.876;4.246;2023-03-23T00:56:36;4.15;;;2.30;;
23155;SDS011;11746;50.876;4.246;2023-03-23T00:59:04;4.97;;;2.80;;
23155;SDS011;11746;50.876;4.246;2023-03-23T01:01:30;3.00;;;2.35;;
23155;SDS011;11746;50.876;4.246;2023-03-23T01:03:59;2.90;;;2.17;;
23155;SDS011;11746;50.876;4.246;2023-03-23T01:06:26;3.60;;;2.47;;
23155;SDS011;11746;50.876;4.246;2023-03-23T01:08:56;3.13;;;2.05;;
23155;SDS011;11746;50.876;4.246;2023-03-23T01:11:25;3.72;;;2.90;;
23155;SDS011;11746;50.876;4.246;2023-03-23T01:13:51;3.00;;;2.35;;
23155;SDS011;11746;50.876;4.246;2023-03-23T01:16:20;4.15;;;2.58;;
23155;SDS011;11746;50.876;4.246;2023-03-23T01:18:51;4.67;;;2.43;;
23155;SDS011;11746;50.876;4.246;2023-03-23T01:21:18;6.63;;;3.05;;
23155;SDS011;11746;50.876;4.246;2023-03-23T01:23:47;3.63;;;2.60;;
23155;SDS011;11746;50.876;4.246;2023-03-23T01:26:14;6.20;;;2.58;;
23155;SDS011;11746;50.876;4.246;2023-03-23T01:28:44;3.50;;;2.42;;
23155;SDS011;11746;50.876;4.246;2023-03-23T01:31:11;3.95;;;2.58;;
23155;SDS011;11746;50.876;4.246;2023-03-23T01:33:40;3.65;;;2.58;;
23155;SDS011;11746;50.876;4.246;2023-03-23T01:36:09;5.65;;;2.70;;
23155;SDS011;11746;50.876;4.246;2023-03-23T01:38:36;4.82;;;2.95;;
23155;SDS011;11746;50.876;4.246;2023-03-23T01:41:02;4.15;;;3.10;;
23155;SDS011;11746;50.876;4.246;2023-03-23T01:43:29;3.72;;;2.78;;
23155;SDS011;11746;50.876;4.246;2023-03-23T01:45:57;3.95;;;2.60;;
23155;SDS011;11746;50.876;4.246;2023-03-23T01:51:03;5.53;;;2.38;;
23155;SDS011;11746;50.876;4.246;2023-03-23T01:53:42;4.43;;;2.72;;
23155;SDS011;11746;50.876;4.246;2023-03-23T01:56:24;3.88;;;2.55;;
23155;SDS011;11746;50.876;4.246;2023-03-23T01:58:57;5.25;;;2.40;;
23155;SDS011;11746;50.876;4.246;2023-03-23T02:01:23;3.97;;;2.17;;
23155;SDS011;11746;50.876;4.246;2023-03-23T02:03:50;4.25;;;2.20;;
23155;SDS011;11746;50.876;4.246;2023-03-23T02:06:20;5.50;;;2.92;;
23155;SDS011;11746;50.876;4.246;2023-03-23T02:08:47;3.13;;;1.90;;
23155;SDS011;11746;50.876;4.246;2023-03-23T02:11:15;4.55;;;2.13;;
23155;SDS011;11746;50.876;4.246;2023-03-23T02:13:44;3.28;;;1.92;;
23155;SDS011;11746;50.876;4.246;2023-03-23T02:35:31;2.95;;;1.40;;
23155;SDS011;11746;50.876;4.246;2023-03-23T02:38:08;4.13;;;1.50;;
23155;SDS011;11746;50.876;4.246;2023-03-23T02:40:41;2.22;;;1.20;;
23155;SDS011;11746;50.876;4.246;2023-03-23T02:43:10;4.07;;;1.30;;
23155;SDS011;11746;50.876;4.246;2023-03-23T02:45:43;2.80;;;1.43;;
23155;SDS011;11746;50.876;4.246;2023-03-23T02:48:10;4.75;;;1.70;;
23155;SDS011;11746;50.876;4.246;2023-03-23T02:50:39;4.63;;;1.58;;
23155;SDS011;11746;50.876;4.246;2023-03-23T02:53:09;3.28;;;1.30;;
23155;SDS011;11746;50.876;4.246;2023-03-23T02:55:39;4.60;;;1.67;;
23155;SDS011;11746;50.876;4.246;2023-03-23T02:58:10;2.42;;;0.98;;
23155;SDS011;11746;50.876;4.246;2023-03-23T03:00:38;3.58;;;1.08;;
23155;SDS011;11746;50.876;4.246;2023-03-23T03:03:04;3.00;;;1.10;;
23155;SDS011;11746;50.876;4.246;2023-03-23T03:11:18;2.67;;;1.00;;
23155;SDS011;11746;50.876;4.246;2023-03-23T03:13:55;4.80;;;1.35;;
23155;SDS011;11746;50.876;4.246;2023-03-23T03:19:05;1.73;;;0.80;;
23155;SDS011;11746;50.876;4.246;2023-03-23T03:21:39;3.25;;;1.00;;
23155;SDS011;11746;50.876;4.246;2023-03-23T03:24:08;4.15;;;1.10;;
23155;SDS011;11746;50.876;4.246;2023-03-23T03:26:42;4.43;;;1.38;;
23155;SDS011;11746;50.876;4.246;2023-03-23T03:29:12;3.67;;;1.05;;
23155;SDS011;11746;50.876;4.246;2023-03-23T03:31:43;2.33;;;1.05;;
23155;SDS011;11746;50.876;4.246;2023-03-23T03:34:11;4.07;;;0.90;;
23155;SDS011;11746;50.876;4.246;2023-03-23T03:36:38;2.92;;;0.90;;
23155;SDS011;11746;50.876;4.246;2023-03-23T03:39:07;4.45;;;1.00;;
23155;SDS011;11746;50.876;4.246;2023-03-23T03:41:35;4.93;;;1.20;;
23155;SDS011;11746;50.876;4.246;2023-03-23T03:44:02;3.33;;;1.00;;
23155;SDS011;11746;50.876;4.246;2023-03-23T03:46:28;4.28;;;1.40;;
23155;SDS011;11746;50.876;4.246;2023-03-23T03:48:57;4.85;;;1.48;;
23155;SDS011;11746;50.876;4.246;2023-03-23T03:51:24;4.00;;;1.10;;
23155;SDS011;11746;50.876;4.246;2023-03-23T03:53:53;3.58;;;1.08;;
23155;SDS011;11746;50.876;4.246;2023-03-23T03:56:21;3.03;;;1.08;;
23155;SDS011;11746;50.876;4.246;2023-03-23T03:58:48;5.25;;;1.20;;
23155;SDS011;11746;50.876;4.246;2023-03-23T04:01:15;6.22;;;1.48;;
23155;SDS011;11746;50.876;4.246;2023-03-23T04:03:44;5.38;;;1.20;;
23155;SDS011;11746;50.876;4.246;2023-03-23T04:06:10;5.00;;;1.00;;
23155;SDS011;11746;50.876;4.246;2023-03-23T04:08:41;6.00;;;1.27;;
23155;SDS011;11746;50.876;4.246;2023-03-23T04:11:08;6.18;;;1.52;;
23155;SDS011;11746;50.876;4.246;2023-03-23T04:13:35;5.18;;;1.20;;
23155;SDS011;11746;50.876;4.246;2023-03-23T04:16:01;5.30;;;1.20;;
23155;SDS011;11746;50.876;4.246;2023-03-23T04:18:29;7.07;;;1.40;;
23155;SDS011;11746;50.876;4.246;2023-03-23T04:20:57;7.35;;;1.55;;
23155;SDS011;11746;50.876;4.246;2023-03-23T04:23:24;6.50;;;1.23;;
23155;SDS011;11746;50.876;4.246;2023-03-23T04:25:51;3.42;;;1.40;;
23155;SDS011;11746;50.876;4.246;2023-03-23T04:28:18;6.40;;;1.35;;
23155;SDS011;11746;50.876;4.246;2023-03-23T04:30:48;5.15;;;1.27;;
23155;SDS011;11746;50.876;4.246;2023-03-23T04:33:18;8.07;;;1.60;;
23155;SDS011;11746;50.876;4.246;2023-03-23T04:35:44;5.82;;;1.27;;
23155;SDS011;11746;50.876;4.246;2023-03-23T04:38:14;4.25;;;1.40;;
23155;SDS011;11746;50.876;4.246;2023-03-23T04:40:41;4.95;;;1.17;;
23155;SDS011;11746;50.876;4.246;2023-03-23T04:43:11;6.22;;;1.25;;
23155;SDS011;11746;50.876;4.246;2023-03-23T04:45:37;4.32;;;1.10;;
23155;SDS011;11746;50.876;4.246;2023-03-23T04:48:06;5.95;;;1.20;;
23155;SDS011;11746;50.876;4.246;2023-03-23T04:50:32;9.73;;;1.17;;
23155;SDS011;11746;50.876;4.246;2023-03-23T04:52:59;6.65;;;1.13;;
23155;SDS011;11746;50.876;4.246;2023-03-23T04:55:29;6.22;;;1.40;;
23155;SDS011;11746;50.876;4.246;2023-03-23T04:57:56;3.22;;;1.38;;
23155;SDS011;11746;50.876;4.246;2023-03-23T05:00:25;4.28;;;1.40;;
23155;SDS011;11746;50.876;4.246;2023-03-23T05:02:51;6.70;;;1.10;;
23155;SDS011;11746;50.876;4.246;2023-03-23T05:05:17;6.18;;;1.25;;
23155;SDS011;11746;50.876;4.246;2023-03-23T05:07:45;3.42;;;1.20;;
23155;SDS011;11746;50.876;4.246;2023-03-23T05:10:12;6.32;;;1.10;;
23155;SDS011;11746;50.876;4.246;2023-03-23T05:12:38;5.40;;;1.42;;
23155;SDS011;11746;50.876;4.246;2023-03-23T05:15:05;5.50;;;1.35;;
23155;SDS011;11746;50.876;4.246;2023-03-23T05:17:34;3.80;;;1.35;;
23155;SDS011;11746;50.876;4.246;2023-03-23T05:20:00;3.85;;;1.13;;
23155;SDS011;11746;50.876;4.246;2023-03-23T05:22:29;5.18;;;1.27;;
23155;SDS011;11746;50.876;4.246;2023-03-23T05:24:57;4.13;;;1.08;;
23155;SDS011;11746;50.876;4.246;2023-03-23T05:27:23;6.68;;;1.20;;
23155;SDS011;11746;50.876;4.246;2023-03-23T05:29:53;5.45;;;1.23;;
23155;SDS011;11746;50.876;4.246;2023-03-23T05:32:18;8.38;;;1.20;;
23155;SDS011;11746;50.876;4.246;2023-03-23T05:34:44;5.00;;;1.20;;
23155;SDS011;11746;50.876;4.246;2023-03-23T05:37:11;6.47;;;1.33;;
23155;SDS011;11746;50.876;4.246;2023-03-23T05:39:38;5.60;;;1.00;;
23155;SDS011;11746;50.876;4.246;2023-03-23T05:42:04;4.82;;;1.20;;
23155;SDS011;11746;50.876;4.246;2023-03-23T05:44:33;5.18;;;1.25;;
23155;SDS011;11746;50.876;4.246;2023-03-23T05:46:59;6.60;;;1.23;;
23155;SDS011;11746;50.876;4.246;2023-03-23T05:49:27;5.97;;;1.40;;
23155;SDS011;11746;50.876;4.246;2023-03-23T05:51:53;4.90;;;0.90;;
23155;SDS011;11746;50.876;4.246;2023-03-23T05:54:19;7.28;;;1.25;;
23155;SDS011;11746;50.876;4.246;2023-03-23T05:56:45;6.88;;;1.35;;
23155;SDS011;11746;50.876;4.246;2023-03-23T05:59:14;7.32;;;1.02;;
23155;SDS011;11746;50.876;4.246;2023-03-23T06:01:40;6.15;;;1.20;;
23155;SDS011;11746;50.876;4.246;2023-03-23T06:04:05;9.00;;;1.27;;
23155;SDS011;11746;50.876;4.246;2023-03-23T06:06:36;4.65;;;1.20;;
23155;SDS011;11746;50.876;4.246;2023-03-23T06:09:06;6.40;;;1.30;;
23155;SDS011;11746;50.876;4.246;2023-03-23T06:11:32;6.22;;;1.13;;
23155;SDS011;11746;50.876;4.246;2023-03-23T06:14:00;6.15;;;1.30;;
23155;SDS011;11746;50.876;4.246;2023-03-23T06:16:26;4.28;;;1.15;;
23155;SDS011;11746;50.876;4.246;2023-03-23T06:18:52;7.85;;;1.30;;
23155;SDS011;11746;50.876;4.246;2023-03-23T06:21:18;4.07;;;1.23;;
23155;SDS011;11746;50.876;4.246;2023-03-23T06:23:44;5.35;;;1.10;;
23155;SDS011;11746;50.876;4.246;2023-03-23T06:26:11;8.32;;;1.65;;
23155;SDS011;11746;50.876;4.246;2023-03-23T06:28:39;6.75;;;1.52;;
23155;SDS011;11746;50.876;4.246;2023-03-23T06:31:08;7.15;;;1.35;;
23155;SDS011;11746;50.876;4.246;2023-03-23T06:33:36;6.03;;;1.23;;
23155;SDS011;11746;50.876;4.246;2023-03-23T06:36:03;6.30;;;1.38;;
23155;SDS011;11746;50.876;4.246;2023-03-23T06:38:29;3.67;;;0.80;;
23155;SDS011;11746;50.876;4.246;2023-03-23T06:40:56;2.90;;;0.40;;
23155;SDS011;11746;50.876;4.246;2023-03-23T06:43:22;1.88;;;0.32;;
23155;SDS011;11746;50.876;4.246;2023-03-23T06:45:50;1.45;;;0.57;;
23155;SDS011;11746;50.876;4.246;2023-03-23T06:48:19;3.67;;;0.63;;
23155;SDS011;11746;50.876;4.246;2023-03-23T06:50:45;6.57;;;0.85;;
23155;SDS011;11746;50.876;4.246;2023-03-23T06:53:11;5.40;;;0.85;;
23155;SDS011;11746;50.876;4.246;2023-03-23T06:55:37;4.13;;;0.70;;
23155;SDS011;11746;50.876;4.246;2023-03-23T06:58:04;2.55;;;0.80;;
23155;SDS011;11746;50.876;4.246;2023-03-23T07:00:31;5.75;;;1.05;;
23155;SDS011;11746;50.876;4.246;2023-03-23T07:02:57;2.50;;;0.60;;
23155;SDS011;11746;50.876;4.246;2023-03-23T07:05:23;2.63;;;0.60;;
23155;SDS011;11746;50.876;4.246;2023-03-23T07:07:49;3.15;;;0.73;;
23155;SDS011;11746;50.876;4.246;2023-03-23T07:10:15;1.90;;;0.40;;
23155;SDS011;11746;50.876;4.246;2023-03-23T07:12:41;1.20;;;0.45;;
23155;SDS011;11746;50.876;4.246;2023-03-23T07:15:09;4.30;;;0.47;;
23155;SDS011;11746;50.876;4.246;2023-03-23T07:17:36;2.35;;;0.60;;
23155;SDS011;11746;50.876;4.246;2023-03-23T07:20:03;4.70;;;0.60;;
23155;SDS011;11746;50.876;4.246;2023-03-23T07:22:29;1.83;;;0.70;;
23155;SDS011;11746;50.876;4.246;2023-03-23T07:24:55;1.90;;;0.82;;
23155;SDS011;11746;50.876;4.246;2023-03-23T07:27:21;3.20;;;1.13;;
23155;SDS011;11746;50.876;4.246;2023-03-23T07:29:50;2.50;;;0.85;;
23155;SDS011;11746;50.876;4.246;2023-03-23T07:32:15;1.80;;;0.80;;
23155;SDS011;11746;50.876;4.246;2023-03-23T07:34:43;4.57;;;1.35;;
23155;SDS011;11746;50.876;4.246;2023-03-23T07:37:12;5.40;;;1.08;;
23155;SDS011;11746;50.876;4.246;2023-03-23T07:39:40;4.00;;;1.20;;
23155;SDS011;11746;50.876;4.246;2023-03-23T07:42:07;4.18;;;1.50;;
23155;SDS011;11746;50.876;4.246;2023-03-23T07:44:35;2.67;;;1.30;;
23155;SDS011;11746;50.876;4.246;2023-03-23T07:47:04;3.65;;;1.23;;
23155;SDS011;11746;50.876;4.246;2023-03-23T07:49:30;2.47;;;0.93;;
23155;SDS011;11746;50.876;4.246;2023-03-23T07:51:56;3.67;;;1.33;;
23155;SDS011;11746;50.876;4.246;2023-03-23T07:54:22;5.38;;;1.13;;
23155;SDS011;11746;50.876;4.246;2023-03-23T07:56:48;2.10;;;1.23;;
23155;SDS011;11746;50.876;4.246;2023-03-23T07:59:14;3.88;;;1.35;;
23155;SDS011;11746;50.876;4.246;2023-03-23T08:01:40;3.83;;;1.17;;
23155;SDS011;11746;50.876;4.246;2023-03-23T08:04:06;4.28;;;1.10;;
23155;SDS011;11746;50.876;4.246;2023-03-23T08:06:34;5.10;;;1.10;;
23155;SDS011;11746;50.876;4.246;2023-03-23T08:09:00;4.20;;;1.10;;
23155;SDS011;11746;50.876;4.246;2023-03-23T08:11:31;4.22;;;1.00;;
23155;SDS011;11746;50.876;4.246;2023-03-23T08:13:58;4.80;;;0.90;;
23155;SDS011;11746;50.876;4.246;2023-03-23T08:16:26;2.83;;;1.25;;
23155;SDS011;11746;50.876;4.246;2023-03-23T08:18:52;4.13;;;1.35;;
23155;SDS011;11746;50.876;4.246;2023-03-23T08:21:21;4.63;;;0.95;;
23155;SDS011;11746;50.876;4.246;2023-03-23T08:23:47;5.53;;;0.90;;
23155;SDS011;11746;50.876;4.246;2023-03-23T08:26:13;1.90;;;0.80;;
23155;SDS011;11746;50.876;4.246;2023-03-23T08:28:42;4.65;;;1.00;;
23155;SDS011;11746;50.876;4.246;2023-03-23T08:31:13;3.20;;;0.90;;
23155;SDS011;11746;50.876;4.246;2023-03-23T08:33:39;5.40;;;0.95;;
23155;SDS011;11746;50.876;4.246;2023-03-23T08:36:06;2.38;;;0.75;;
23155;SDS011;11746;50.876;4.246;2023-03-23T08:38:33;7.28;;;2.85;;
23155;SDS011;11746;50.876;4.246;2023-03-23T08:41:00;2.65;;;0.70;;
23155;SDS011;11746;50.876;4.246;2023-03-23T08:43:28;4.35;;;1.20;;
23155;SDS011;11746;50.876;4.246;2023-03-23T08:45:54;4.05;;;1.10;;
23155;SDS011;11746;50.876;4.246;2023-03-23T08:48:21;4.10;;;1.20;;
23155;SDS011;11746;50.876;4.246;2023-03-23T08:50:48;7.13;;;1.88;;
23155;SDS011;11746;50.876;4.246;2023-03-23T08:53:14;6.40;;;1.20;;
23155;SDS011;11746;50.876;4.246;2023-03-23T08:55:41;3.13;;;0.80;;
23155;SDS011;11746;50.876;4.246;2023-03-23T08:58:07;2.97;;;0.75;;
23155;SDS011;11746;50.876;4.246;2023-03-23T09:00:33;2.45;;;0.93;;
23155;SDS011;11746;50.876;4.246;2023-03-23T09:02:59;2.63;;;0.77;;
23155;SDS011;11746;50.876;4.246;2023-03-23T09:05:28;3.75;;;0.90;;
23155;SDS011;11746;50.876;4.246;2023-03-23T09:07:54;8.00;;;1.48;;
23155;SDS011;11746;50.876;4.246;2023-03-23T09:10:23;3.05;;;0.98;;
23155;SDS011;11746;50.876;4.246;2023-03-23T09:12:53;4.47;;;1.15;;
23155;SDS011;11746;50.876;4.246;2023-03-23T09:15:23;3.83;;;1.17;;
23155;SDS011;11746;50.876;4.246;2023-03-23T09:17:49;2.65;;;0.88;;
23155;SDS011;11746;50.876;4.246;2023-03-23T09:20:18;5.65;;;1.50;;
23155;SDS011;11746;50.876;4.246;2023-03-23T09:22:47;4.75;;;1.48;;
23155;SDS011;11746;50.876;4.246;2023-03-23T09:25:18;2.72;;;1.15;;
23155;SDS011;11746;50.876;4.246;2023-03-23T09:27:48;3.20;;;0.90;;
23155;SDS011;11746;50.876;4.246;2023-03-23T09:30:18;4.35;;;1.20;;
23155;SDS011;11746;50.876;4.246;2023-03-23T09:32:45;2.97;;;0.90;;
23155;SDS011;11746;50.876;4.246;2023-03-23T09:35:13;2.13;;;0.80;;
23155;SDS011;11746;50.876;4.246;2023-03-23T09:37:41;3.33;;;1.00;;
23155;SDS011;11746;50.876;4.246;2023-03-23T09:40:11;1.55;;;0.85;;
23155;SDS011;11746;50.876;4.246;2023-03-23T09:45:26;2.90;;;1.10;;
23155;SDS011;11746;50.876;4.246;2023-03-23T09:50:51;3.17;;;0.88;;
23155;SDS011;11746;50.876;4.246;2023-03-23T09:53:23;4.65;;;1.13;;
23155;SDS011;11746;50.876;4.246;2023-03-23T09:55:53;3.78;;;1.13;;
23155;SDS011;11746;50.876;4.246;2023-03-23T09:58:33;2.97;;;0.93;;
23155;SDS011;11746;50.876;4.246;2023-03-23T10:01:17;3.35;;;1.40;;
23155;SDS011;11746;50.876;4.246;2023-03-23T10:06:57;2.85;;;1.17;;
23155;SDS011;11746;50.876;4.246;2023-03-23T10:09:25;4.70;;;1.23;;
23155;SDS011;11746;50.876;4.246;2023-03-23T10:22:23;3.50;;;1.30;;
23155;SDS011;11746;50.876;4.246;2023-03-23T10:38:26;4.78;;;1.55;;
23155;SDS011;11746;50.876;4.246;2023-03-23T10:40:59;4.78;;;1.48;;
23155;SDS011;11746;50.876;4.246;2023-03-23T10:43:36;4.70;;;1.38;;
23155;SDS011;11746;50.876;4.246;2023-03-23T10:46:05;8.45;;;1.90;;
23155;SDS011;11746;50.876;4.246;2023-03-23T10:48:46;7.05;;;1.48;;
23155;SDS011;11746;50.876;4.246;2023-03-23T10:51:19;6.13;;;1.50;;
23155;SDS011;11746;50.876;4.246;2023-03-23T10:53:55;7.80;;;2.35;;
23155;SDS011;11746;50.876;4.246;2023-03-23T10:56:24;6.60;;;1.75;;
23155;SDS011;11746;50.876;4.246;2023-03-23T10:58:50;5.25;;;1.90;;
23155;SDS011;11746;50.876;4.246;2023-03-23T11:01:18;9.00;;;2.08;;
23155;SDS011;11746;50.876;4.246;2023-03-23T11:03:45;8.48;;;2.15;;
23155;SDS011;11746;50.876;4.246;2023-03-23T11:06:20;11.10;;;2.03;;
23155;SDS011;11746;50.876;4.246;2023-03-23T11:08:58;8.82;;;2.08;;
23155;SDS011;11746;50.876;4.246;2023-03-23T11:11:29;6.78;;;1.90;;
23155;SDS011;11746;50.876;4.246;2023-03-23T11:14:12;8.65;;;2.15;;
23155;SDS011;11746;50.876;4.246;2023-03-23T11:16:46;6.47;;;2.53;;
23155;SDS011;11746;50.876;4.246;2023-03-23T11:19:21;7.60;;;1.75;;
23155;SDS011;11746;50.876;4.246;2023-03-23T11:21:53;8.45;;;1.80;;
23155;SDS011;11746;50.876;4.246;2023-03-23T11:24:27;7.60;;;2.40;;
23155;SDS011;11746;50.876;4.246;2023-03-23T11:26:55;7.28;;;1.88;;
23155;SDS011;11746;50.876;4.246;2023-03-23T11:29:24;8.20;;;1.83;;
23155;SDS011;11746;50.876;4.246;2023-03-23T11:32:04;9.60;;;2.30;;
23155;SDS011;11746;50.876;4.246;2023-03-23T11:37:02;6.40;;;1.80;;
23155;SDS011;11746;50.876;4.246;2023-03-23T11:39:45;5.80;;;2.47;;
23155;SDS011;11746;50.876;4.246;2023-03-23T11:42:20;5.78;;;1.95;;
23155;SDS011;11746;50.876;4.246;2023-03-23T11:58:46;6.55;;;1.45;;
23155;SDS011;11746;50.876;4.246;2023-03-23T12:01:28;5.68;;;1.77;;
23155;SDS011;11746;50.876;4.246;2023-03-23T12:07:08;6.55;;;1.50;;
23155;SDS011;11746;50.876;4.246;2023-03-23T12:10:24;6.88;;;1.80;;
23155;SDS011;11746;50.876;4.246;2023-03-23T12:16:10;5.57;;;1.40;;
23155;SDS011;11746;50.876;4.246;2023-03-23T12:18:51;6.53;;;1.92;;
23155;SDS011;11746;50.876;4.246;2023-03-23T12:26:45;6.68;;;1.25;;
23155;SDS011;11746;50.876;4.246;2023-03-23T12:59:47;9.30;;;2.33;;
23155;SDS011;11746;50.876;4.246;2023-03-23T13:02:29;6.88;;;1.80;;
23155;SDS011;11746;50.876;4.246;2023-03-23T13:05:08;5.70;;;1.23;;
23155;SDS011;11746;50.876;4.246;2023-03-23T13:07:37;6.43;;;1.75;;
23155;SDS011;11746;50.876;4.246;2023-03-23T13:10:21;4.53;;;1.42;;
23155;SDS011;11746;50.876;4.246;2023-03-23T13:12:54;5.53;;;1.30;;
23155;SDS011;11746;50.876;4.246;2023-03-23T13:23:42;6.13;;;1.38;;
23155;SDS011;11746;50.876;4.246;2023-03-23T13:26:17;5.15;;;1.38;;
23155;SDS011;11746;50.876;4.246;2023-03-23T13:33:59;5.43;;;1.45;;
23155;SDS011;11746;50.876;4.246;2023-03-23T13:36:51;6.25;;;1.25;;
23155;SDS011;11746;50.876;4.246;2023-03-23T13:39:20;8.65;;;1.50;;
23155;SDS011;11746;50.876;4.246;2023-03-23T13:41:59;7.82;;;1.65;;
23155;SDS011;11746;50.876;4.246;2023-03-23T13:44:39;7.13;;;1.73;;
23155;SDS011;11746;50.876;4.246;2023-03-23T14:02:58;8.88;;;1.73;;
23155;SDS011;11746;50.876;4.246;2023-03-23T14:05:34;6.95;;;1.65;;
23155;SDS011;11746;50.876;4.246;2023-03-23T14:10:57;5.05;;;1.30;;
23155;SDS011;11746;50.876;4.246;2023-03-23T14:18:54;7.25;;;1.33;;
23155;SDS011;11746;50.876;4.246;2023-03-23T14:21:25;7.78;;;1.30;;
23155;SDS011;11746;50.876;4.246;2023-03-23T14:24:06;4.57;;;1.52;;
23155;SDS011;11746;50.876;4.246;2023-03-23T14:26:42;4.10;;;1.25;;
23155;SDS011;11746;50.876;4.246;2023-03-23T14:29:11;5.28;;;1.40;;
23155;SDS011;11746;50.876;4.246;2023-03-23T14:31:38;7.63;;;1.45;;
23155;SDS011;11746;50.876;4.246;2023-03-23T14:34:12;6.82;;;1.60;;
23155;SDS011;11746;50.876;4.246;2023-03-23T14:36:45;9.65;;;1.83;;
23155;SDS011;11746;50.876;4.246;2023-03-23T14:41:36;7.32;;;1.52;;
23155;SDS011;11746;50.876;4.246;2023-03-23T14:44:03;8.25;;;2.38;;
23155;SDS011;11746;50.876;4.246;2023-03-23T14:46:32;10.18;;;1.90;;
23155;SDS011;11746;50.876;4.246;2023-03-23T14:48:59;7.68;;;1.92;;
23155;SDS011;11746;50.876;4.246;2023-03-23T14:51:28;8.05;;;1.70;;
23155;SDS011;11746;50.876;4.246;2023-03-23T14:53:54;6.70;;;1.60;;
23155;SDS011;11746;50.876;4.246;2023-03-23T14:56:21;8.10;;;1.60;;
23155;SDS011;11746;50.876;4.246;2023-03-23T14:58:50;6.68;;;1.67;;
23155;SDS011;11746;50.876;4.246;2023-03-23T15:01:18;6.95;;;1.50;;
23155;SDS011;11746;50.876;4.246;2023-03-23T15:03:49;9.82;;;2.47;;
23155;SDS011;11746;50.876;4.246;2023-03-23T15:06:37;7.15;;;1.60;;
23155;SDS011;11746;50.876;4.246;2023-03-23T15:09:11;7.80;;;1.80;;
23155;SDS011;11746;50.876;4.246;2023-03-23T15:11:40;11.60;;;2.10;;
23155;SDS011;11746;50.876;4.246;2023-03-23T15:14:17;10.38;;;2.42;;
23155;SDS011;11746;50.876;4.246;2023-03-23T15:16:46;10.35;;;2.25;;
23155;SDS011;11746;50.876;4.246;2023-03-23T15:19:20;6.82;;;1.80;;
23155;SDS011;11746;50.876;4.246;2023-03-23T15:21:56;8.68;;;1.88;;
23155;SDS011;11746;50.876;4.246;2023-03-23T15:24:37;11.45;;;2.53;;
23155;SDS011;11746;50.876;4.246;2023-03-23T15:29:31;7.05;;;1.83;;
23155;SDS011;11746;50.876;4.246;2023-03-23T15:31:57;8.00;;;2.20;;
23155;SDS011;11746;50.876;4.246;2023-03-23T15:37:21;11.20;;;2.58;;
23155;SDS011;11746;50.876;4.246;2023-03-23T15:39:51;10.15;;;2.20;;
23155;SDS011;11746;50.876;4.246;2023-03-23T15:42:30;9.90;;;2.53;;
23155;SDS011;11746;50.876;4.246;2023-03-23T15:53:47;12.20;;;2.72;;
23155;SDS011;11746;50.876;4.246;2023-03-23T15:56:03;6.50;;;2.10;;
23155;SDS011;11746;50.876;4.246;2023-03-23T15:58:30;9.27;;;2.38;;
23155;SDS011;11746;50.876;4.246;2023-03-23T16:00:57;10.38;;;2.20;;
23155;SDS011;11746;50.876;4.246;2023-03-23T16:03:25;8.65;;;1.90;;
23155;SDS011;11746;50.876;4.246;2023-03-23T16:05:54;5.38;;;1.58;;
23155;SDS011;11746;50.876;4.246;2023-03-23T16:08:24;5.72;;;1.58;;
23155;SDS011;11746;50.876;4.246;2023-03-23T16:10:50;6.95;;;1.70;;
23155;SDS011;11746;50.876;4.246;2023-03-23T16:13:16;7.35;;;1.80;;
23155;SDS011;11746;50.876;4.246;2023-03-23T16:15:44;6.45;;;1.77;;
23155;SDS011;11746;50.876;4.246;2023-03-23T16:18:18;8.85;;;1.85;;
23155;SDS011;11746;50.876;4.246;2023-03-23T16:20:46;9.95;;;2.13;;
23155;SDS011;11746;50.876;4.246;2023-03-23T16:23:13;5.35;;;1.88;;
23155;SDS011;11746;50.876;4.246;2023-03-23T16:25:41;7.80;;;2.00;;
23155;SDS011;11746;50.876;4.246;2023-03-23T16:28:08;10.35;;;1.75;;
23155;SDS011;11746;50.876;4.246;2023-03-23T16:30:40;6.68;;;1.50;;
23155;SDS011;11746;50.876;4.246;2023-03-23T16:33:07;11.35;;;1.65;;
23155;SDS011;11746;50.876;4.246;2023-03-23T16:35:38;7.90;;;1.90;;
23155;SDS011;11746;50.876;4.246;2023-03-23T16:38:04;8.65;;;1.70;;
23155;SDS011;11746;50.876;4.246;2023-03-23T16:40:35;9.05;;;1.88;;
23155;SDS011;11746;50.876;4.246;2023-03-23T16:43:01;7.32;;;1.52;;
23155;SDS011;11746;50.876;4.246;2023-03-23T16:45:29;8.55;;;1.60;;
23155;SDS011;11746;50.876;4.246;2023-03-23T16:47:55;10.52;;;2.05;;
23155;SDS011;11746;50.876;4.246;2023-03-23T16:50:25;8.82;;;2.20;;
23155;SDS011;11746;50.876;4.246;2023-03-23T16:52:53;8.82;;;1.90;;
23155;SDS011;11746;50.876;4.246;2023-03-23T16:55:19;9.07;;;2.08;;
23155;SDS011;11746;50.876;4.246;2023-03-23T16:57:45;7.93;;;2.85;;
23155;SDS011;11746;50.876;4.246;2023-03-23T17:00:14;9.02;;;2.60;;
23155;SDS011;11746;50.876;4.246;2023-03-23T17:02:45;12.85;;;4.35;;
23155;SDS011;11746;50.876;4.246;2023-03-23T17:05:12;13.48;;;5.07;;
23155;SDS011;11746;50.876;4.246;2023-03-23T17:07:41;18.25;;;7.85;;
23155;SDS011;11746;50.876;4.246;2023-03-23T17:10:08;22.67;;;9.68;;
23155;SDS011;11746;50.876;4.246;2023-03-23T17:12:35;21.75;;;9.40;;
23155;SDS011;11746;50.876;4.246;2023-03-23T17:15:04;20.98;;;8.40;;
23155;SDS011;11746;50.876;4.246;2023-03-23T17:17:30;15.80;;;6.53;;
23155;SDS011;11746;50.876;4.246;2023-03-23T17:19:58;16.02;;;5.70;;
23155;SDS011;11746;50.876;4.246;2023-03-23T17:22:24;12.13;;;5.60;;
23155;SDS011;11746;50.876;4.246;2023-03-23T17:24:52;14.05;;;5.50;;
23155;SDS011;11746;50.876;4.246;2023-03-23T17:27:20;15.57;;;4.97;;
23155;SDS011;11746;50.876;4.246;2023-03-23T17:29:49;12.15;;;3.60;;
23155;SDS011;11746;50.876;4.246;2023-03-23T17:32:14;15.55;;;3.60;;
23155;SDS011;11746;50.876;4.246;2023-03-23T17:34:40;10.13;;;2.92;;
23155;SDS011;11746;50.876;4.246;2023-03-23T17:37:06;10.10;;;2.63;;
23155;SDS011;11746;50.876;4.246;2023-03-23T17:39:32;12.88;;;3.03;;
23155;SDS011;11746;50.876;4.246;2023-03-23T17:41:58;8.90;;;2.78;;
23155;SDS011;11746;50.876;4.246;2023-03-23T17:44:25;9.75;;;2.88;;
23155;SDS011;11746;50.876;4.246;2023-03-23T17:46:54;12.07;;;2.65;;
23155;SDS011;11746;50.876;4.246;2023-03-23T17:49:24;11.15;;;2.72;;
23155;SDS011;11746;50.876;4.246;2023-03-23T17:51:50;11.73;;;2.83;;
23155;SDS011;11746;50.876;4.246;2023-03-23T17:54:16;9.20;;;2.58;;